sensor_id;sensor_type;location;lat;lon;timestamp;pressure;altitude;pressure_sealevel;temperature;humidity
48892;BME280;50130;52.150;5.236;2022-10-30T00:00:52;101481.0;;;15.92;95.2
48892;BME280;50130;52.150;5.236;2022-10-30T00:04:05;101483.0;;;15.95;94.8
48892;BME280;50130;52.150;5.236;2022-10-30T00:05:43;101484.0;;;15.97;94.65
48892;BME280;50130;52.150;5.236;2022-10-30T00:07:21;101482.0;;;15.87;94.91
48892;BME280;50130;52.150;5.236;2022-10-30T00:10:33;101480.0;;;15.84;95.01
48892;BME280;50130;52.150;5.236;2022-10-30T00:12:09;101483.0;;;15.77;95.2
48892;BME280;50130;52.150;5.236;2022-10-30T00:13:45;101485.0;;;15.81;94.96
48892;BME280;50130;52.150;5.236;2022-10-30T00:16:57;101487.0;;;15.72;95.15
48892;BME280;50130;52.150;5.236;2022-10-30T00:18:34;101492.0;;;15.81;94.82
48892;BME280;50130;52.150;5.236;2022-10-30T00:20:11;101489.0;;;15.79;94.74
48892;BME280;50130;52.150;5.236;2022-10-30T00:23:23;101480.0;;;15.78;94.76
48892;BME280;50130;52.150;5.236;2022-10-30T00:24:59;101477.0;;;15.73;94.96
48892;BME280;50130;52.150;5.236;2022-10-30T00:26:35;101475.0;;;15.67;95.16
48892;BME280;50130;52.150;5.236;2022-10-30T00:28:12;101474.0;;;15.59;95.73
48892;BME280;50130;52.150;5.236;2022-10-30T00:31:24;101476.0;;;15.65;95.72
48892;BME280;50130;52.150;5.236;2022-10-30T00:33:00;101475.0;;;15.68;95.59
48892;BME280;50130;52.150;5.236;2022-10-30T00:34:37;101482.0;;;15.64;96.1
48892;BME280;50130;52.150;5.236;2022-10-30T00:37:49;101480.0;;;15.67;95.61
48892;BME280;50130;52.150;5.236;2022-10-30T00:39:25;101484.0;;;15.59;95.81
48892;BME280;50130;52.150;5.236;2022-10-30T00:41:02;101481.0;;;15.64;95.55
48892;BME280;50130;52.150;5.236;2022-10-30T00:44:32;101478.0;;;15.58;95.78
48892;BME280;50130;52.150;5.236;2022-10-30T00:46:17;101473.0;;;15.63;95.64
48892;BME280;50130;52.150;5.236;2022-10-30T00:47:59;101475.0;;;15.63;95.59
48892;BME280;50130;52.150;5.236;2022-10-30T00:49:42;101475.0;;;15.56;95.7
48892;BME280;50130;52.150;5.236;2022-10-30T00:51:29;101474.0;;;15.55;95.93
48892;BME280;50130;52.150;5.236;2022-10-30T00:54:49;101480.0;;;15.52;96.13
48892;BME280;50130;52.150;5.236;2022-10-30T00:56:27;101482.0;;;15.65;95.56
48892;BME280;50130;52.150;5.236;2022-10-30T00:58:09;101481.0;;;15.7;95.23
48892;BME280;50130;52.150;5.236;2022-10-30T00:59:49;101480.0;;;15.62;95.5
48892;BME280;50130;52.150;5.236;2022-10-30T01:03:07;101484.0;;;15.69;95.2
48892;BME280;50130;52.150;5.236;2022-10-30T01:04:45;101486.0;;;15.68;95.18
48892;BME280;50130;52.150;5.236;2022-10-30T01:06:25;101483.0;;;15.77;94.78
48892;BME280;50130;52.150;5.236;2022-10-30T01:08:04;101481.0;;;15.65;95.04
48892;BME280;50130;52.150;5.236;2022-10-30T01:11:17;101480.0;;;15.69;95.05
48892;BME280;50130;52.150;5.236;2022-10-30T01:12:55;101480.0;;;15.64;94.92
48892;BME280;50130;52.150;5.236;2022-10-30T01:14:37;101478.0;;;15.54;95.12
48892;BME280;50130;52.150;5.236;2022-10-30T01:16:30;101482.0;;;15.45;95.57
48892;BME280;50130;52.150;5.236;2022-10-30T01:20:17;101478.0;;;15.36;96.01
48892;BME280;50130;52.150;5.236;2022-10-30T01:23:24;101487.0;;;15.29;96.16
48892;BME280;50130;52.150;5.236;2022-10-30T01:25:17;101488.0;;;15.24;96.45
48892;BME280;50130;52.150;5.236;2022-10-30T01:27:14;101486.0;;;15.24;96.25
48892;BME280;50130;52.150;5.236;2022-10-30T01:29:10;101489.0;;;15.19;96.24
48892;BME280;50130;52.150;5.236;2022-10-30T01:32:51;101497.0;;;15.22;96.12
48892;BME280;50130;52.150;5.236;2022-10-30T01:34:41;101492.0;;;15.2;96.19
48892;BME280;50130;52.150;5.236;2022-10-30T01:36:24;101496.0;;;15.24;96.08
48892;BME280;50130;52.150;5.236;2022-10-30T01:38:09;101500.0;;;15.19;96.2
48892;BME280;50130;52.150;5.236;2022-10-30T01:39:50;101501.0;;;15.11;96.3
48892;BME280;50130;52.150;5.236;2022-10-30T01:41:27;101500.0;;;15.03;96.79
48892;BME280;50130;52.150;5.236;2022-10-30T01:44:40;101502.0;;;15.08;96.42
48892;BME280;50130;52.150;5.236;2022-10-30T01:46:28;101505.0;;;15.11;96.21
48892;BME280;50130;52.150;5.236;2022-10-30T01:48:28;101507.0;;;14.98;96.55
48892;BME280;50130;52.150;5.236;2022-10-30T01:50:35;101511.0;;;15.13;95.84
48892;BME280;50130;52.150;5.236;2022-10-30T01:52:17;101505.0;;;15.07;95.84
48892;BME280;50130;52.150;5.236;2022-10-30T01:54:03;101505.0;;;14.99;96.19
48892;BME280;50130;52.150;5.236;2022-10-30T01:57:36;101507.0;;;15.01;96.27
48892;BME280;50130;52.150;5.236;2022-10-30T01:59:18;101503.0;;;15.09;96.32
48892;BME280;50130;52.150;5.236;2022-10-30T02:00:58;101506.0;;;15.13;96.13
48892;BME280;50130;52.150;5.236;2022-10-30T02:02:35;101510.0;;;15.28;95.68
48892;BME280;50130;52.150;5.236;2022-10-30T02:05:51;101513.0;;;15.21;95.34
48892;BME280;50130;52.150;5.236;2022-10-30T02:07:27;101508.0;;;15.2;95.93
48892;BME280;50130;52.150;5.236;2022-10-30T02:09:04;101508.0;;;15.09;96.33
48892;BME280;50130;52.150;5.236;2022-10-30T02:10:42;101508.0;;;15.11;96.0
48892;BME280;50130;52.150;5.236;2022-10-30T02:14:01;101507.0;;;15.13;95.95
48892;BME280;50130;52.150;5.236;2022-10-30T02:15:40;101509.0;;;15.22;95.39
48892;BME280;50130;52.150;5.236;2022-10-30T02:17:18;101513.0;;;15.22;94.98
48892;BME280;50130;52.150;5.236;2022-10-30T02:20:32;101514.0;;;15.22;95.19
48892;BME280;50130;52.150;5.236;2022-10-30T02:22:09;101511.0;;;15.03;95.98
48892;BME280;50130;52.150;5.236;2022-10-30T02:23:46;101506.0;;;15.02;96.1
48892;BME280;50130;52.150;5.236;2022-10-30T02:25:23;101506.0;;;15.01;96.18
48892;BME280;50130;52.150;5.236;2022-10-30T02:28:36;101507.0;;;14.93;96.3
48892;BME280;50130;52.150;5.236;2022-10-30T02:30:12;101505.0;;;14.88;96.58
48892;BME280;50130;52.150;5.236;2022-10-30T02:31:49;101511.0;;;14.89;96.55
48892;BME280;50130;52.150;5.236;2022-10-30T02:35:03;101509.0;;;14.94;96.65
48892;BME280;50130;52.150;5.236;2022-10-30T02:36:41;101509.0;;;14.91;96.23
48892;BME280;50130;52.150;5.236;2022-10-30T02:38:18;101512.0;;;14.92;96.05
48892;BME280;50130;52.150;5.236;2022-10-30T02:39:54;101516.0;;;14.84;96.37
48892;BME280;50130;52.150;5.236;2022-10-30T02:43:06;101512.0;;;14.86;96.28
48892;BME280;50130;52.150;5.236;2022-10-30T02:44:42;101513.0;;;14.82;96.32
48892;BME280;50130;52.150;5.236;2022-10-30T02:46:18;101509.0;;;14.77;96.4
48892;BME280;50130;52.150;5.236;2022-10-30T02:49:34;101513.0;;;14.76;96.62
48892;BME280;50130;52.150;5.236;2022-10-30T02:51:11;101517.0;;;14.79;96.39
48892;BME280;50130;52.150;5.236;2022-10-30T02:52:48;101512.0;;;14.72;96.76
48892;BME280;50130;52.150;5.236;2022-10-30T02:56:02;101512.0;;;14.75;96.59
48892;BME280;50130;52.150;5.236;2022-10-30T02:57:39;101512.0;;;14.7;96.63
48892;BME280;50130;52.150;5.236;2022-10-30T02:59:16;101510.0;;;14.7;96.61
48892;BME280;50130;52.150;5.236;2022-10-30T03:00:52;101512.0;;;14.73;96.63
48892;BME280;50130;52.150;5.236;2022-10-30T03:04:05;101510.0;;;14.73;96.23
48892;BME280;50130;52.150;5.236;2022-10-30T03:05:42;101513.0;;;14.72;96.0
48892;BME280;50130;52.150;5.236;2022-10-30T03:07:18;101517.0;;;14.68;96.22
48892;BME280;50130;52.150;5.236;2022-10-30T03:10:30;101514.0;;;14.74;95.8
48892;BME280;50130;52.150;5.236;2022-10-30T03:12:07;101516.0;;;14.65;96.33
48892;BME280;50130;52.150;5.236;2022-10-30T03:13:44;101509.0;;;14.57;96.34
48892;BME280;50130;52.150;5.236;2022-10-30T03:16:58;101510.0;;;14.69;95.99
48892;BME280;50130;52.150;5.236;2022-10-30T03:18:34;101515.0;;;14.63;96.19
48892;BME280;50130;52.150;5.236;2022-10-30T03:20:11;101514.0;;;14.62;95.98
48892;BME280;50130;52.150;5.236;2022-10-30T03:21:48;101514.0;;;14.6;95.65
48892;BME280;50130;52.150;5.236;2022-10-30T03:25:02;101520.0;;;14.57;95.7
48892;BME280;50130;52.150;5.236;2022-10-30T03:26:38;101521.0;;;14.57;95.74
48892;BME280;50130;52.150;5.236;2022-10-30T03:28:16;101523.0;;;14.57;95.67
48892;BME280;50130;52.150;5.236;2022-10-30T03:31:30;101526.0;;;14.62;95.52
48892;BME280;50130;52.150;5.236;2022-10-30T03:33:06;101526.0;;;14.6;95.45
48892;BME280;50130;52.150;5.236;2022-10-30T03:34:42;101523.0;;;14.45;95.63
48892;BME280;50130;52.150;5.236;2022-10-30T03:37:54;101523.0;;;14.48;95.65
48892;BME280;50130;52.150;5.236;2022-10-30T03:39:30;101524.0;;;14.4;95.7
48892;BME280;50130;52.150;5.236;2022-10-30T03:41:07;101528.0;;;14.42;95.68
48892;BME280;50130;52.150;5.236;2022-10-30T03:42:44;101528.0;;;14.34;95.61
48892;BME280;50130;52.150;5.236;2022-10-30T03:45:57;101525.0;;;14.28;95.64
48892;BME280;50130;52.150;5.236;2022-10-30T03:47:34;101526.0;;;14.21;95.74
48892;BME280;50130;52.150;5.236;2022-10-30T03:49:14;101528.0;;;14.25;95.94
48892;BME280;50130;52.150;5.236;2022-10-30T03:52:27;101524.0;;;14.34;95.38
48892;BME280;50130;52.150;5.236;2022-10-30T03:54:04;101521.0;;;14.28;95.61
48892;BME280;50130;52.150;5.236;2022-10-30T03:55:40;101520.0;;;14.18;95.48
48892;BME280;50130;52.150;5.236;2022-10-30T03:57:17;101519.0;;;14.17;95.87
48892;BME280;50130;52.150;5.236;2022-10-30T04:00:29;101515.0;;;14.11;95.82
48892;BME280;50130;52.150;5.236;2022-10-30T04:02:06;101512.0;;;14.13;95.76
48892;BME280;50130;52.150;5.236;2022-10-30T04:03:43;101512.0;;;14.12;95.67
48892;BME280;50130;52.150;5.236;2022-10-30T04:06:59;101508.0;;;14.06;95.77
48892;BME280;50130;52.150;5.236;2022-10-30T04:08:35;101512.0;;;14.08;95.54
48892;BME280;50130;52.150;5.236;2022-10-30T04:13:25;101505.0;;;14.0;95.7
48892;BME280;50130;52.150;5.236;2022-10-30T04:15:01;101502.0;;;13.92;95.77
48892;BME280;50130;52.150;5.236;2022-10-30T04:16:38;101500.0;;;13.88;95.82
48892;BME280;50130;52.150;5.236;2022-10-30T04:18:16;101501.0;;;13.89;95.45
48892;BME280;50130;52.150;5.236;2022-10-30T04:21:29;101509.0;;;13.91;95.55
48892;BME280;50130;52.150;5.236;2022-10-30T04:23:08;101514.0;;;13.82;95.74
48892;BME280;50130;52.150;5.236;2022-10-30T04:24:48;101515.0;;;13.87;95.97
48892;BME280;50130;52.150;5.236;2022-10-30T04:28:02;101510.0;;;13.8;96.3
48892;BME280;50130;52.150;5.236;2022-10-30T04:29:41;101510.0;;;13.84;96.6
48892;BME280;50130;52.150;5.236;2022-10-30T04:31:17;101510.0;;;13.87;96.61
48892;BME280;50130;52.150;5.236;2022-10-30T04:32:55;101511.0;;;13.87;96.69
48892;BME280;50130;52.150;5.236;2022-10-30T04:36:09;101510.0;;;13.95;96.38
48892;BME280;50130;52.150;5.236;2022-10-30T04:37:51;101515.0;;;14.02;95.91
48892;BME280;50130;52.150;5.236;2022-10-30T04:39:28;101512.0;;;13.93;96.03
48892;BME280;50130;52.150;5.236;2022-10-30T04:42:41;101514.0;;;13.96;95.93
48892;BME280;50130;52.150;5.236;2022-10-30T04:44:21;101515.0;;;13.9;96.08
48892;BME280;50130;52.150;5.236;2022-10-30T04:45:57;101512.0;;;14.06;96.32
48892;BME280;50130;52.150;5.236;2022-10-30T04:47:33;101514.0;;;14.1;95.69
48892;BME280;50130;52.150;5.236;2022-10-30T04:50:46;101522.0;;;13.9;95.77
48892;BME280;50130;52.150;5.236;2022-10-30T04:52:23;101528.0;;;13.88;96.07
48892;BME280;50130;52.150;5.236;2022-10-30T04:53:59;101524.0;;;13.92;95.49
48892;BME280;50130;52.150;5.236;2022-10-30T04:57:12;101530.0;;;13.79;96.28
48892;BME280;50130;52.150;5.236;2022-10-30T04:58:48;101526.0;;;13.74;96.18
48892;BME280;50130;52.150;5.236;2022-10-30T05:00:24;101523.0;;;13.71;96.24
48892;BME280;50130;52.150;5.236;2022-10-30T05:03:38;101520.0;;;13.66;96.23
48892;BME280;50130;52.150;5.236;2022-10-30T05:05:15;101521.0;;;13.67;96.44
48892;BME280;50130;52.150;5.236;2022-10-30T05:06:52;101530.0;;;13.73;96.02
48892;BME280;50130;52.150;5.236;2022-10-30T05:08:28;101525.0;;;13.79;95.84
48892;BME280;50130;52.150;5.236;2022-10-30T05:11:46;101525.0;;;13.79;95.73
48892;BME280;50130;52.150;5.236;2022-10-30T05:13:22;101520.0;;;13.8;95.36
48892;BME280;50130;52.150;5.236;2022-10-30T05:14:59;101520.0;;;13.63;95.6
48892;BME280;50130;52.150;5.236;2022-10-30T05:18:12;101520.0;;;13.58;95.88
48892;BME280;50130;52.150;5.236;2022-10-30T05:19:49;101521.0;;;13.61;95.82
48892;BME280;50130;52.150;5.236;2022-10-30T05:21:25;101513.0;;;13.53;95.83
48892;BME280;50130;52.150;5.236;2022-10-30T05:23:01;101510.0;;;13.57;95.89
48892;BME280;50130;52.150;5.236;2022-10-30T05:26:14;101511.0;;;13.61;95.28
48892;BME280;50130;52.150;5.236;2022-10-30T05:27:56;101507.0;;;13.54;95.22
48892;BME280;50130;52.150;5.236;2022-10-30T05:29:33;101502.0;;;13.45;95.65
48892;BME280;50130;52.150;5.236;2022-10-30T05:32:45;101505.0;;;13.48;95.74
48892;BME280;50130;52.150;5.236;2022-10-30T05:34:22;101500.0;;;13.44;95.64
48892;BME280;50130;52.150;5.236;2022-10-30T05:35:58;101500.0;;;13.43;95.63
48892;BME280;50130;52.150;5.236;2022-10-30T05:39:10;101495.0;;;13.4;95.89
48892;BME280;50130;52.150;5.236;2022-10-30T05:40:46;101487.0;;;13.46;95.97
48892;BME280;50130;52.150;5.236;2022-10-30T05:42:23;101492.0;;;13.46;96.36
48892;BME280;50130;52.150;5.236;2022-10-30T05:44:00;101491.0;;;13.54;96.59
48892;BME280;50130;52.150;5.236;2022-10-30T05:47:13;101496.0;;;13.58;96.7
48892;BME280;50130;52.150;5.236;2022-10-30T05:48:49;101494.0;;;13.69;96.42
48892;BME280;50130;52.150;5.236;2022-10-30T05:50:26;101489.0;;;13.75;96.14
48892;BME280;50130;52.150;5.236;2022-10-30T05:53:39;101491.0;;;13.76;96.29
48892;BME280;50130;52.150;5.236;2022-10-30T05:55:16;101488.0;;;13.77;96.47
48892;BME280;50130;52.150;5.236;2022-10-30T05:56:52;101493.0;;;13.77;96.86
48892;BME280;50130;52.150;5.236;2022-10-30T06:00:07;101496.0;;;13.68;97.09
48892;BME280;50130;52.150;5.236;2022-10-30T06:01:43;101499.0;;;13.62;97.23
48892;BME280;50130;52.150;5.236;2022-10-30T06:03:20;101499.0;;;13.52;96.83
48892;BME280;50130;52.150;5.236;2022-10-30T06:04:57;101500.0;;;13.39;97.27
48892;BME280;50130;52.150;5.236;2022-10-30T06:08:09;101502.0;;;13.32;97.38
48892;BME280;50130;52.150;5.236;2022-10-30T06:09:46;101507.0;;;13.28;97.52
48892;BME280;50130;52.150;5.236;2022-10-30T06:11:22;101512.0;;;13.34;97.1
48892;BME280;50130;52.150;5.236;2022-10-30T06:14:38;101512.0;;;13.42;96.79
48892;BME280;50130;52.150;5.236;2022-10-30T06:16:14;101513.0;;;13.42;96.4
48892;BME280;50130;52.150;5.236;2022-10-30T06:17:50;101514.0;;;13.44;96.35
48892;BME280;50130;52.150;5.236;2022-10-30T06:21:03;101513.0;;;13.32;96.6
48892;BME280;50130;52.150;5.236;2022-10-30T06:22:40;101514.0;;;13.26;97.05
48892;BME280;50130;52.150;5.236;2022-10-30T06:24:17;101514.0;;;13.33;97.03
48892;BME280;50130;52.150;5.236;2022-10-30T06:25:54;101517.0;;;13.41;96.61
48892;BME280;50130;52.150;5.236;2022-10-30T06:29:10;101516.0;;;13.41;96.46
48892;BME280;50130;52.150;5.236;2022-10-30T06:30:46;101511.0;;;13.28;96.36
48892;BME280;50130;52.150;5.236;2022-10-30T06:32:22;101517.0;;;13.27;96.57
48892;BME280;50130;52.150;5.236;2022-10-30T06:35:36;101518.0;;;13.23;96.63
48892;BME280;50130;52.150;5.236;2022-10-30T06:37:12;101525.0;;;13.23;96.95
48892;BME280;50130;52.150;5.236;2022-10-30T06:38:48;101521.0;;;13.31;96.89
48892;BME280;50130;52.150;5.236;2022-10-30T06:42:01;101519.0;;;13.2;97.21
48892;BME280;50130;52.150;5.236;2022-10-30T06:43:38;101523.0;;;13.26;97.03
48892;BME280;50130;52.150;5.236;2022-10-30T06:45:16;101523.0;;;13.31;97.02
48892;BME280;50130;52.150;5.236;2022-10-30T06:46:53;101530.0;;;13.35;96.7
48892;BME280;50130;52.150;5.236;2022-10-30T06:50:09;101533.0;;;13.25;96.89
48892;BME280;50130;52.150;5.236;2022-10-30T06:51:46;101535.0;;;13.26;96.76
48892;BME280;50130;52.150;5.236;2022-10-30T06:53:23;101540.0;;;13.18;97.4
48892;BME280;50130;52.150;5.236;2022-10-30T06:56:37;101540.0;;;13.24;97.06
48892;BME280;50130;52.150;5.236;2022-10-30T06:58:13;101537.0;;;13.12;97.38
48892;BME280;50130;52.150;5.236;2022-10-30T06:59:49;101531.0;;;13.18;97.41
48892;BME280;50130;52.150;5.236;2022-10-30T07:01:25;101527.0;;;13.29;96.95
48892;BME280;50130;52.150;5.236;2022-10-30T07:04:40;101525.0;;;13.2;97.34
48892;BME280;50130;52.150;5.236;2022-10-30T07:06:16;101520.0;;;13.34;97.07
48892;BME280;50130;52.150;5.236;2022-10-30T07:07:55;101519.0;;;13.38;96.51
48892;BME280;50130;52.150;5.236;2022-10-30T07:11:07;101526.0;;;13.39;96.36
48892;BME280;50130;52.150;5.236;2022-10-30T07:12:53;101526.0;;;13.36;96.77
48892;BME280;50130;52.150;5.236;2022-10-30T07:14:30;101528.0;;;13.31;97.32
48892;BME280;50130;52.150;5.236;2022-10-30T07:16:06;101535.0;;;13.29;97.74
48892;BME280;50130;52.150;5.236;2022-10-30T07:19:27;101533.0;;;13.31;97.65
48892;BME280;50130;52.150;5.236;2022-10-30T07:21:04;101533.0;;;13.29;97.83
48892;BME280;50130;52.150;5.236;2022-10-30T07:22:40;101531.0;;;13.38;97.52
48892;BME280;50130;52.150;5.236;2022-10-30T07:25:54;101532.0;;;13.33;97.69
48892;BME280;50130;52.150;5.236;2022-10-30T07:27:31;101527.0;;;13.33;97.94
48892;BME280;50130;52.150;5.236;2022-10-30T07:29:07;101526.0;;;13.46;97.5
48892;BME280;50130;52.150;5.236;2022-10-30T07:30:43;101527.0;;;13.46;97.51
48892;BME280;50130;52.150;5.236;2022-10-30T07:33:55;101520.0;;;13.47;97.6
48892;BME280;50130;52.150;5.236;2022-10-30T07:35:34;101520.0;;;13.45;97.92
48892;BME280;50130;52.150;5.236;2022-10-30T07:37:11;101519.0;;;13.46;97.81
48892;BME280;50130;52.150;5.236;2022-10-30T07:40:25;101514.0;;;13.52;97.84
48892;BME280;50130;52.150;5.236;2022-10-30T07:42:02;101507.0;;;13.53;98.21
48892;BME280;50130;52.150;5.236;2022-10-30T07:43:39;101506.0;;;13.56;98.94
48892;BME280;50130;52.150;5.236;2022-10-30T07:46:52;101510.0;;;13.67;99.11
48892;BME280;50130;52.150;5.236;2022-10-30T07:48:28;101510.0;;;13.76;99.15
48892;BME280;50130;52.150;5.236;2022-10-30T07:50:05;101516.0;;;13.8;99.17
48892;BME280;50130;52.150;5.236;2022-10-30T07:51:41;101512.0;;;13.86;99.27
48892;BME280;50130;52.150;5.236;2022-10-30T07:54:54;101510.0;;;13.83;99.52
48892;BME280;50130;52.150;5.236;2022-10-30T07:56:30;101506.0;;;13.92;99.55
48892;BME280;50130;52.150;5.236;2022-10-30T07:58:07;101509.0;;;13.98;99.52
48892;BME280;50130;52.150;5.236;2022-10-30T08:01:20;101510.0;;;14.13;99.48
48892;BME280;50130;52.150;5.236;2022-10-30T08:02:57;101513.0;;;14.32;98.98
48892;BME280;50130;52.150;5.236;2022-10-30T08:04:34;101516.0;;;14.31;99.85
48892;BME280;50130;52.150;5.236;2022-10-30T08:07:47;101516.0;;;14.52;99.41
48892;BME280;50130;52.150;5.236;2022-10-30T08:09:23;101514.0;;;14.51;99.73
48892;BME280;50130;52.150;5.236;2022-10-30T08:10:59;101519.0;;;14.68;99.68
48892;BME280;50130;52.150;5.236;2022-10-30T08:12:38;101520.0;;;14.7;99.43
48892;BME280;50130;52.150;5.236;2022-10-30T08:15:51;101519.0;;;14.82;99.39
48892;BME280;50130;52.150;5.236;2022-10-30T08:17:27;101517.0;;;15.02;98.91
48892;BME280;50130;52.150;5.236;2022-10-30T08:19:03;101520.0;;;15.05;98.91
48892;BME280;50130;52.150;5.236;2022-10-30T08:22:18;101523.0;;;15.26;99.13
48892;BME280;50130;52.150;5.236;2022-10-30T08:23:54;101523.0;;;15.44;98.67
48892;BME280;50130;52.150;5.236;2022-10-30T08:25:30;101524.0;;;15.6;98.53
48892;BME280;50130;52.150;5.236;2022-10-30T08:28:43;101520.0;;;15.68;98.42
48892;BME280;50130;52.150;5.236;2022-10-30T08:30:20;101521.0;;;15.85;98.23
48892;BME280;50130;52.150;5.236;2022-10-30T08:31:57;101519.0;;;16.09;97.65
48892;BME280;50130;52.150;5.236;2022-10-30T08:33:33;101526.0;;;16.2;97.25
48892;BME280;50130;52.150;5.236;2022-10-30T08:36:49;101526.0;;;16.29;96.53
48892;BME280;50130;52.150;5.236;2022-10-30T08:38:28;101528.0;;;16.31;95.91
48892;BME280;50130;52.150;5.236;2022-10-30T08:40:05;101525.0;;;16.47;95.6
48892;BME280;50130;52.150;5.236;2022-10-30T08:43:18;101522.0;;;16.57;94.85
48892;BME280;50130;52.150;5.236;2022-10-30T08:44:55;101522.0;;;16.61;93.55
48892;BME280;50130;52.150;5.236;2022-10-30T08:46:31;101525.0;;;16.73;93.42
48892;BME280;50130;52.150;5.236;2022-10-30T08:48:09;101527.0;;;16.84;93.09
48892;BME280;50130;52.150;5.236;2022-10-30T08:51:23;101528.0;;;16.84;92.65
48892;BME280;50130;52.150;5.236;2022-10-30T08:53:00;101536.0;;;16.91;92.69
48892;BME280;50130;52.150;5.236;2022-10-30T08:54:38;101531.0;;;17.0;92.82
48892;BME280;50130;52.150;5.236;2022-10-30T08:57:51;101532.0;;;16.95;93.17
48892;BME280;50130;52.150;5.236;2022-10-30T08:59:27;101531.0;;;17.06;92.74
48892;BME280;50130;52.150;5.236;2022-10-30T09:01:04;101528.0;;;17.22;92.4
48892;BME280;50130;52.150;5.236;2022-10-30T09:02:41;101535.0;;;17.12;93.09
48892;BME280;50130;52.150;5.236;2022-10-30T09:05:53;101535.0;;;17.25;92.68
48892;BME280;50130;52.150;5.236;2022-10-30T09:07:30;101527.0;;;17.25;93.18
48892;BME280;50130;52.150;5.236;2022-10-30T09:09:06;101523.0;;;17.28;92.4
48892;BME280;50130;52.150;5.236;2022-10-30T09:12:19;101513.0;;;17.46;91.92
48892;BME280;50130;52.150;5.236;2022-10-30T09:13:56;101510.0;;;17.52;90.76
48892;BME280;50130;52.150;5.236;2022-10-30T09:15:32;101514.0;;;17.66;90.01
48892;BME280;50130;52.150;5.236;2022-10-30T09:18:45;101516.0;;;17.77;90.28
48892;BME280;50130;52.150;5.236;2022-10-30T09:20:22;101512.0;;;18.02;89.51
48892;BME280;50130;52.150;5.236;2022-10-30T09:21:59;101512.0;;;18.06;87.95
48892;BME280;50130;52.150;5.236;2022-10-30T09:25:11;101522.0;;;18.14;88.44
48892;BME280;50130;52.150;5.236;2022-10-30T09:26:48;101524.0;;;18.28;89.1
48892;BME280;50130;52.150;5.236;2022-10-30T09:28:24;101527.0;;;18.23;89.71
48892;BME280;50130;52.150;5.236;2022-10-30T09:30:00;101533.0;;;18.45;88.98
48892;BME280;50130;52.150;5.236;2022-10-30T09:33:14;101531.0;;;18.52;87.97
48892;BME280;50130;52.150;5.236;2022-10-30T09:34:50;101535.0;;;18.61;87.92
48892;BME280;50130;52.150;5.236;2022-10-30T09:36:26;101537.0;;;18.66;87.48
48892;BME280;50130;52.150;5.236;2022-10-30T09:39:40;101540.0;;;18.77;86.77
48892;BME280;50130;52.150;5.236;2022-10-30T09:41:37;101541.0;;;18.87;87.25
48892;BME280;50130;52.150;5.236;2022-10-30T09:43:24;101538.0;;;18.91;86.98
48892;BME280;50130;52.150;5.236;2022-10-30T09:45:25;101543.0;;;19.02;85.47
48892;BME280;50130;52.150;5.236;2022-10-30T09:48:20;101549.0;;;19.18;85.67
48892;BME280;50130;52.150;5.236;2022-10-30T09:50:21;101550.0;;;19.25;85.0
48892;BME280;50130;52.150;5.236;2022-10-30T09:52:07;101552.0;;;19.34;84.0
48892;BME280;50130;52.150;5.236;2022-10-30T09:54:05;101555.0;;;19.34;84.39
48892;BME280;50130;52.150;5.236;2022-10-30T09:55:50;101556.0;;;19.45;85.89
48892;BME280;50130;52.150;5.236;2022-10-30T09:57:40;101551.0;;;19.36;83.82
48892;BME280;50130;52.150;5.236;2022-10-30T09:59:29;101548.0;;;19.52;82.54
48892;BME280;50130;52.150;5.236;2022-10-30T10:03:08;101546.0;;;19.59;83.04
48892;BME280;50130;52.150;5.236;2022-10-30T10:04:55;101551.0;;;19.75;81.11
48892;BME280;50130;52.150;5.236;2022-10-30T10:06:39;101556.0;;;19.86;81.24
48892;BME280;50130;52.150;5.236;2022-10-30T10:08:22;101550.0;;;19.82;81.8
48892;BME280;50130;52.150;5.236;2022-10-30T10:10:06;101544.0;;;19.8;82.85
48892;BME280;50130;52.150;5.236;2022-10-30T10:11:47;101543.0;;;19.75;80.86
48892;BME280;50130;52.150;5.236;2022-10-30T10:15:16;101547.0;;;19.93;80.88
48892;BME280;50130;52.150;5.236;2022-10-30T10:17:13;101548.0;;;19.96;81.97
48892;BME280;50130;52.150;5.236;2022-10-30T10:18:56;101550.0;;;19.93;81.95
48892;BME280;50130;52.150;5.236;2022-10-30T10:20:44;101549.0;;;20.16;81.99
48892;BME280;50130;52.150;5.236;2022-10-30T10:22:25;101549.0;;;20.06;80.39
48892;BME280;50130;52.150;5.236;2022-10-30T10:25:57;101551.0;;;19.97;81.48
48892;BME280;50130;52.150;5.236;2022-10-30T10:27:46;101553.0;;;20.2;80.87
48892;BME280;50130;52.150;5.236;2022-10-30T10:29:34;101551.0;;;20.31;80.08
48892;BME280;50130;52.150;5.236;2022-10-30T10:31:29;101550.0;;;20.37;81.05
48892;BME280;50130;52.150;5.236;2022-10-30T10:33:41;101549.0;;;20.43;79.19
48892;BME280;50130;52.150;5.236;2022-10-30T10:38:19;101555.0;;;20.62;78.02
48892;BME280;50130;52.150;5.236;2022-10-30T10:40:13;101552.0;;;20.59;77.73
48892;BME280;50130;52.150;5.236;2022-10-30T10:42:04;101552.0;;;20.59;77.36
48892;BME280;50130;52.150;5.236;2022-10-30T10:43:58;101548.0;;;20.75;77.92
48892;BME280;50130;52.150;5.236;2022-10-30T10:45:48;101555.0;;;20.85;78.02
48892;BME280;50130;52.150;5.236;2022-10-30T10:47:45;101556.0;;;20.9;76.66
48892;BME280;50130;52.150;5.236;2022-10-30T10:49:38;101551.0;;;20.99;77.86
48892;BME280;50130;52.150;5.236;2022-10-30T10:53:08;101548.0;;;20.95;76.39
48892;BME280;50130;52.150;5.236;2022-10-30T10:54:54;101545.0;;;21.02;76.3
48892;BME280;50130;52.150;5.236;2022-10-30T10:56:35;101544.0;;;21.09;75.11
48892;BME280;50130;52.150;5.236;2022-10-30T10:58:24;101545.0;;;21.06;74.77
48892;BME280;50130;52.150;5.236;2022-10-30T11:00:14;101549.0;;;21.09;76.37
48892;BME280;50130;52.150;5.236;2022-10-30T11:03:44;101549.0;;;21.13;76.27
48892;BME280;50130;52.150;5.236;2022-10-30T11:05:30;101546.0;;;21.19;76.08
48892;BME280;50130;52.150;5.236;2022-10-30T11:07:18;101542.0;;;21.21;74.88
48892;BME280;50130;52.150;5.236;2022-10-30T11:09:01;101538.0;;;21.16;76.8
48892;BME280;50130;52.150;5.236;2022-10-30T11:10:50;101533.0;;;21.42;74.99
48892;BME280;50130;52.150;5.236;2022-10-30T11:12:34;101532.0;;;21.4;75.33